sensor_id;sensor_type;location;lat;lon;timestamp;pressure;altitude;pressure_sealevel;temperature;humidity
37304;BME280;23188;51.188;16.374;2023-02-11T00:00:06;101804.02;;;2.45;84.29
37304;BME280;23188;51.188;16.374;2023-02-11T00:04:28;101799.66;;;2.43;84.92
37304;BME280;23188;51.188;16.374;2023-02-11T00:08:30;101800.29;;;2.39;85.49
37304;BME280;23188;51.188;16.374;2023-02-11T00:12:34;101791.02;;;2.38;85.66
37304;BME280;23188;51.188;16.374;2023-02-11T00:16:36;101779.56;;;2.33;85.93
37304;BME280;23188;51.188;16.374;2023-02-11T00:20:38;101766.94;;;2.27;86.32
37304;BME280;23188;51.188;16.374;2023-02-11T00:24:40;101756.23;;;2.28;85.73
37304;BME280;23188;51.188;16.374;2023-02-11T00:28:43;101765.59;;;2.32;85.22
37304;BME280;23188;51.188;16.374;2023-02-11T00:32:46;101766.11;;;2.33;85.11
37304;BME280;23188;51.188;16.374;2023-02-11T00:36:49;101768.64;;;2.30;85.30
37304;BME280;23188;51.188;16.374;2023-02-11T00:40:51;101765.31;;;2.29;85.45
37304;BME280;23188;51.188;16.374;2023-02-11T00:44:52;101760.13;;;2.27;85.41
37304;BME280;23188;51.188;16.374;2023-02-11T00:48:55;101749.88;;;2.23;85.51
37304;BME280;23188;51.188;16.374;2023-02-11T00:52:58;101749.73;;;2.23;85.60
37304;BME280;23188;51.188;16.374;2023-02-11T00:57:00;101752.83;;;2.24;85.51
37304;BME280;23188;51.188;16.374;2023-02-11T01:01:03;101746.55;;;2.23;85.36
37304;BME280;23188;51.188;16.374;2023-02-11T01:05:06;101739.23;;;2.22;85.52
37304;BME280;23188;51.188;16.374;2023-02-11T01:09:07;101729.88;;;2.18;85.92
37304;BME280;23188;51.188;16.374;2023-02-11T01:13:09;101713.77;;;2.19;85.74
37304;BME280;23188;51.188;16.374;2023-02-11T01:17:11;101704.31;;;2.19;85.58
37304;BME280;23188;51.188;16.374;2023-02-11T01:21:13;101707.38;;;2.22;85.47
37304;BME280;23188;51.188;16.374;2023-02-11T01:25:15;101697.71;;;2.30;85.38
37304;BME280;23188;51.188;16.374;2023-02-11T01:29:17;101686.35;;;2.30;85.45
37304;BME280;23188;51.188;16.374;2023-02-11T01:33:21;101684.51;;;2.33;85.49
37304;BME280;23188;51.188;16.374;2023-02-11T01:37:23;101678.94;;;2.39;85.44
37304;BME280;23188;51.188;16.374;2023-02-11T01:41:25;101669.70;;;2.44;85.19
37304;BME280;23188;51.188;16.374;2023-02-11T01:49:55;101650.49;;;2.49;85.26
37304;BME280;23188;51.188;16.374;2023-02-11T01:53:57;101639.42;;;2.57;84.53
37304;BME280;23188;51.188;16.374;2023-02-11T01:58:18;101633.13;;;2.77;83.01
37304;BME280;23188;51.188;16.374;2023-02-11T02:02:26;101624.63;;;2.99;81.87
37304;BME280;23188;51.188;16.374;2023-02-11T02:06:38;101625.21;;;3.15;81.04
37304;BME280;23188;51.188;16.374;2023-02-11T02:10:44;101623.59;;;3.23;80.22
37304;BME280;23188;51.188;16.374;2023-02-11T02:14:47;101627.15;;;3.33;79.91
37304;BME280;23188;51.188;16.374;2023-02-11T02:19:22;101628.41;;;3.38;79.32
37304;BME280;23188;51.188;16.374;2023-02-11T02:23:57;101616.91;;;3.41;79.14
37304;BME280;23188;51.188;16.374;2023-02-11T02:37:07;101568.05;;;3.50;78.61
37304;BME280;23188;51.188;16.374;2023-02-11T02:41:15;101568.42;;;3.44;79.10
37304;BME280;23188;51.188;16.374;2023-02-11T02:45:17;101579.91;;;3.46;78.82
37304;BME280;23188;51.188;16.374;2023-02-11T02:49:20;101572.84;;;3.48;79.26
37304;BME280;23188;51.188;16.374;2023-02-11T02:53:48;101550.42;;;3.53;79.34
37304;BME280;23188;51.188;16.374;2023-02-11T03:06:55;101509.88;;;3.65;79.70
37304;BME280;23188;51.188;16.374;2023-02-11T03:11:02;101510.95;;;3.75;79.59
37304;BME280;23188;51.188;16.374;2023-02-11T03:15:07;101512.65;;;3.81;79.49
37304;BME280;23188;51.188;16.374;2023-02-11T03:19:31;101528.48;;;3.86;79.48
37304;BME280;23188;51.188;16.374;2023-02-11T03:23:39;101522.83;;;3.92;79.32
37304;BME280;23188;51.188;16.374;2023-02-11T03:27:51;101531.90;;;3.99;79.74
37304;BME280;23188;51.188;16.374;2023-02-11T03:36:22;101553.79;;;4.06;80.42
37304;BME280;23188;51.188;16.374;2023-02-11T03:40:31;101539.91;;;4.11;80.52
37304;BME280;23188;51.188;16.374;2023-02-11T03:44:40;101539.28;;;4.14;80.57
37304;BME280;23188;51.188;16.374;2023-02-11T03:48:48;101534.78;;;4.17;80.76
37304;BME280;23188;51.188;16.374;2023-02-11T03:52:51;101510.91;;;4.22;80.63
37304;BME280;23188;51.188;16.374;2023-02-11T03:56:57;101501.67;;;4.25;80.52
37304;BME280;23188;51.188;16.374;2023-02-11T04:00:59;101497.55;;;4.27;80.49
37304;BME280;23188;51.188;16.374;2023-02-11T04:05:05;101493.50;;;4.32;80.39
37304;BME280;23188;51.188;16.374;2023-02-11T04:09:10;101506.74;;;4.46;80.40
37304;BME280;23188;51.188;16.374;2023-02-11T04:13:19;101500.38;;;4.51;80.42
37304;BME280;23188;51.188;16.374;2023-02-11T04:17:23;101491.16;;;4.54;79.87
37304;BME280;23188;51.188;16.374;2023-02-11T04:21:25;101500.14;;;4.58;80.08
37304;BME280;23188;51.188;16.374;2023-02-11T04:25:27;101497.67;;;4.53;80.10
37304;BME280;23188;51.188;16.374;2023-02-11T04:29:30;101490.58;;;4.51;80.29
37304;BME280;23188;51.188;16.374;2023-02-11T04:33:34;101487.90;;;4.52;80.29
37304;BME280;23188;51.188;16.374;2023-02-11T04:37:36;101482.67;;;4.55;80.60
37304;BME280;23188;51.188;16.374;2023-02-11T04:41:38;101479.44;;;4.62;80.43
37304;BME280;23188;51.188;16.374;2023-02-11T04:45:40;101470.34;;;4.65;80.49
37304;BME280;23188;51.188;16.374;2023-02-11T04:49:42;101464.58;;;4.64;80.45
37304;BME280;23188;51.188;16.374;2023-02-11T04:53:45;101458.39;;;4.66;80.70
37304;BME280;23188;51.188;16.374;2023-02-11T04:57:51;101450.88;;;4.68;80.45
37304;BME280;23188;51.188;16.374;2023-02-11T05:01:53;101450.19;;;4.68;80.21
37304;BME280;23188;51.188;16.374;2023-02-11T05:05:55;101448.58;;;4.70;80.34
37304;BME280;23188;51.188;16.374;2023-02-11T05:09:57;101449.65;;;4.74;80.15
37304;BME280;23188;51.188;16.374;2023-02-11T05:14:00;101451.55;;;4.79;80.09
37304;BME280;23188;51.188;16.374;2023-02-11T05:18:02;101431.31;;;4.80;80.10
37304;BME280;23188;51.188;16.374;2023-02-11T05:22:04;101422.84;;;4.85;79.67
37304;BME280;23188;51.188;16.374;2023-02-11T05:26:08;101417.57;;;4.85;79.54
37304;BME280;23188;51.188;16.374;2023-02-11T05:30:10;101413.55;;;4.89;79.85
37304;BME280;23188;51.188;16.374;2023-02-11T05:34:12;101411.34;;;4.87;79.74
37304;BME280;23188;51.188;16.374;2023-02-11T05:38:16;101408.10;;;4.89;79.58
37304;BME280;23188;51.188;16.374;2023-02-11T05:42:17;101408.39;;;4.91;79.59
37304;BME280;23188;51.188;16.374;2023-02-11T05:46:19;101408.63;;;4.93;79.71
37304;BME280;23188;51.188;16.374;2023-02-11T05:50:21;101415.66;;;4.93;79.77
37304;BME280;23188;51.188;16.374;2023-02-11T05:54:23;101399.96;;;4.90;80.89
37304;BME280;23188;51.188;16.374;2023-02-11T05:58:25;101392.04;;;4.91;82.26
37304;BME280;23188;51.188;16.374;2023-02-11T06:02:27;101391.86;;;4.91;82.70
37304;BME280;23188;51.188;16.374;2023-02-11T06:06:29;101393.48;;;4.94;83.09
37304;BME280;23188;51.188;16.374;2023-02-11T06:10:31;101398.61;;;4.93;83.71
37304;BME280;23188;51.188;16.374;2023-02-11T06:14:33;101389.33;;;4.93;83.70
37304;BME280;23188;51.188;16.374;2023-02-11T06:18:34;101387.73;;;4.89;84.15
37304;BME280;23188;51.188;16.374;2023-02-11T06:22:37;101389.27;;;4.89;84.44
37304;BME280;23188;51.188;16.374;2023-02-11T06:26:39;101383.95;;;4.91;84.60
37304;BME280;23188;51.188;16.374;2023-02-11T06:30:41;101382.87;;;4.87;85.07
37304;BME280;23188;51.188;16.374;2023-02-11T06:34:44;101385.27;;;4.89;85.68
37304;BME280;23188;51.188;16.374;2023-02-11T06:38:47;101381.55;;;4.89;86.18
37304;BME280;23188;51.188;16.374;2023-02-11T06:42:50;101384.64;;;4.87;86.65
37304;BME280;23188;51.188;16.374;2023-02-11T06:46:52;101391.68;;;4.91;86.93
37304;BME280;23188;51.188;16.374;2023-02-11T06:50:54;101394.40;;;4.93;86.93
37304;BME280;23188;51.188;16.374;2023-02-11T06:54:56;101391.20;;;4.94;87.08
37304;BME280;23188;51.188;16.374;2023-02-11T06:59:00;101385.58;;;4.94;87.56
37304;BME280;23188;51.188;16.374;2023-02-11T07:03:05;101382.54;;;4.95;87.80
37304;BME280;23188;51.188;16.374;2023-02-11T07:07:08;101391.33;;;4.99;87.55
37304;BME280;23188;51.188;16.374;2023-02-11T07:11:19;101380.13;;;5.02;87.72
37304;BME280;23188;51.188;16.374;2023-02-11T07:15:21;101367.39;;;5.00;88.34
37304;BME280;23188;51.188;16.374;2023-02-11T07:19:23;101367.63;;;5.03;88.54
37304;BME280;23188;51.188;16.374;2023-02-11T07:23:25;101358.33;;;5.07;88.81
37304;BME280;23188;51.188;16.374;2023-02-11T07:27:27;101362.45;;;5.14;88.95
37304;BME280;23188;51.188;16.374;2023-02-11T07:31:29;101361.84;;;5.16;89.03
37304;BME280;23188;51.188;16.374;2023-02-11T07:35:32;101370.40;;;5.26;89.00
37304;BME280;23188;51.188;16.374;2023-02-11T07:39:34;101381.73;;;5.28;89.04
37304;BME280;23188;51.188;16.374;2023-02-11T07:43:38;101380.23;;;5.30;89.04
37304;BME280;23188;51.188;16.374;2023-02-11T07:47:40;101371.02;;;5.36;88.97
37304;BME280;23188;51.188;16.374;2023-02-11T07:51:43;101367.83;;;5.37;89.35
37304;BME280;23188;51.188;16.374;2023-02-11T07:55:46;101357.35;;;5.43;89.02
37304;BME280;23188;51.188;16.374;2023-02-11T07:59:48;101362.89;;;5.49;89.23
37304;BME280;23188;51.188;16.374;2023-02-11T08:04:00;101363.30;;;5.48;89.25
37304;BME280;23188;51.188;16.374;2023-02-11T08:08:03;101373.16;;;5.48;89.99
37304;BME280;23188;51.188;16.374;2023-02-11T08:12:06;101368.86;;;5.50;90.34
37304;BME280;23188;51.188;16.374;2023-02-11T08:16:22;101372.47;;;5.51;90.48
37304;BME280;23188;51.188;16.374;2023-02-11T08:20:25;101380.56;;;5.60;91.41
37304;BME280;23188;51.188;16.374;2023-02-11T08:24:27;101376.88;;;5.55;92.33
37304;BME280;23188;51.188;16.374;2023-02-11T08:28:30;101378.27;;;5.52;92.41
37304;BME280;23188;51.188;16.374;2023-02-11T09:01:11;101352.45;;;5.91;93.40
37304;BME280;23188;51.188;16.374;2023-02-11T09:05:14;101351.03;;;6.03;92.60
37304;BME280;23188;51.188;16.374;2023-02-11T09:09:16;101341.38;;;6.07;92.55
37304;BME280;23188;51.188;16.374;2023-02-11T09:13:19;101345.38;;;6.20;93.04
37304;BME280;23188;51.188;16.374;2023-02-11T09:17:46;101344.77;;;6.33;93.09
37304;BME280;23188;51.188;16.374;2023-02-11T09:21:50;101338.34;;;6.50;92.83
37304;BME280;23188;51.188;16.374;2023-02-11T09:25:52;101337.05;;;6.62;91.61
37304;BME280;23188;51.188;16.374;2023-02-11T09:29:54;101333.84;;;6.70;91.19
37304;BME280;23188;51.188;16.374;2023-02-11T09:34:00;101334.89;;;6.78;91.10
37304;BME280;23188;51.188;16.374;2023-02-11T09:38:02;101316.64;;;6.76;91.28
37304;BME280;23188;51.188;16.374;2023-02-11T09:46:31;101289.86;;;6.83;91.78
37304;BME280;23188;51.188;16.374;2023-02-11T09:50:45;101275.38;;;6.94;91.61
37304;BME280;23188;51.188;16.374;2023-02-11T09:54:56;101289.71;;;6.99;91.50
37304;BME280;23188;51.188;16.374;2023-02-11T09:59:14;101301.17;;;7.03;91.56
37304;BME280;23188;51.188;16.374;2023-02-11T10:03:28;101301.33;;;6.82;92.08
37304;BME280;23188;51.188;16.374;2023-02-11T10:08:43;101301.15;;;6.93;91.89
37304;BME280;23188;51.188;16.374;2023-02-11T10:26:59;101300.04;;;6.91;92.09
37304;BME280;23188;51.188;16.374;2023-02-11T10:35:45;101290.48;;;6.91;92.07
37304;BME280;23188;51.188;16.374;2023-02-11T10:39:49;101278.79;;;6.85;92.58
37304;BME280;23188;51.188;16.374;2023-02-11T10:43:51;101267.80;;;6.76;92.80
37304;BME280;23188;51.188;16.374;2023-02-11T10:47:53;101272.80;;;6.71;92.87
37304;BME280;23188;51.188;16.374;2023-02-11T10:56:25;101277.38;;;6.64;92.93
37304;BME280;23188;51.188;16.374;2023-02-11T11:00:54;101287.97;;;6.56;93.29
37304;BME280;23188;51.188;16.374;2023-02-11T11:05:01;101300.61;;;6.61;92.98
37304;BME280;23188;51.188;16.374;2023-02-11T11:09:04;101291.27;;;6.61;92.95
37304;BME280;23188;51.188;16.374;2023-02-11T11:18:19;101268.88;;;6.76;92.32
37304;BME280;23188;51.188;16.374;2023-02-11T11:22:24;101257.88;;;6.91;92.07
37304;BME280;23188;51.188;16.374;2023-02-11T11:26:57;101250.89;;;7.11;91.35
37304;BME280;23188;51.188;16.374;2023-02-11T11:31:03;101258.45;;;7.35;90.43
37304;BME280;23188;51.188;16.374;2023-02-11T11:35:27;101258.64;;;7.51;89.64
37304;BME280;23188;51.188;16.374;2023-02-11T11:39:31;101272.45;;;7.54;89.05
37304;BME280;23188;51.188;16.374;2023-02-11T11:43:35;101274.45;;;7.56;88.63
37304;BME280;23188;51.188;16.374;2023-02-11T11:53:04;101257.80;;;7.47;88.57
37304;BME280;23188;51.188;16.374;2023-02-11T11:57:19;101269.20;;;7.42;89.03
37304;BME280;23188;51.188;16.374;2023-02-11T12:06:23;101251.02;;;7.35;90.44
37304;BME280;23188;51.188;16.374;2023-02-11T12:32:26;101215.87;;;7.49;89.92
37304;BME280;23188;51.188;16.374;2023-02-11T12:41:01;101235.02;;;7.28;90.48
37304;BME280;23188;51.188;16.374;2023-02-11T12:45:20;101245.30;;;7.13;91.14
37304;BME280;23188;51.188;16.374;2023-02-11T12:58:24;101184.27;;;7.16;91.73
37304;BME280;23188;51.188;16.374;2023-02-11T13:03:10;101181.80;;;7.22;91.69
37304;BME280;23188;51.188;16.374;2023-02-11T13:07:27;101177.88;;;7.23;91.83
37304;BME280;23188;51.188;16.374;2023-02-11T13:11:37;101179.96;;;7.27;91.88
37304;BME280;23188;51.188;16.374;2023-02-11T13:16:00;101181.02;;;7.21;91.90
37304;BME280;23188;51.188;16.374;2023-02-11T13:24:57;101187.62;;;7.27;92.52
37304;BME280;23188;51.188;16.374;2023-02-11T13:33:20;101190.09;;;7.23;92.03
37304;BME280;23188;51.188;16.374;2023-02-11T13:37:53;101197.85;;;7.16;92.71
37304;BME280;23188;51.188;16.374;2023-02-11T13:42:03;101196.05;;;7.10;93.35
37304;BME280;23188;51.188;16.374;2023-02-11T13:46:07;101193.70;;;7.08;94.15
37304;BME280;23188;51.188;16.374;2023-02-11T13:50:22;101199.70;;;6.97;95.07
37304;BME280;23188;51.188;16.374;2023-02-11T13:54:50;101198.17;;;7.03;95.39
37304;BME280;23188;51.188;16.374;2023-02-11T13:58:53;101192.08;;;7.02;95.75
37304;BME280;23188;51.188;16.374;2023-02-11T14:12:28;101209.13;;;7.03;96.11
37304;BME280;23188;51.188;16.374;2023-02-11T14:26:22;101205.92;;;6.90;98.09
37304;BME280;23188;51.188;16.374;2023-02-11T14:39:37;101216.50;;;6.80;99.97
37304;BME280;23188;51.188;16.374;2023-02-11T14:43:52;101218.04;;;6.77;100.00
37304;BME280;23188;51.188;16.374;2023-02-11T14:48:03;101236.81;;;6.71;100.00
37304;BME280;23188;51.188;16.374;2023-02-11T14:52:33;101248.71;;;6.77;100.00
37304;BME280;23188;51.188;16.374;2023-02-11T14:56:42;101249.01;;;6.78;100.00
37304;BME280;23188;51.188;16.374;2023-02-11T15:00:58;101269.48;;;6.70;100.00
37304;BME280;23188;51.188;16.374;2023-02-11T15:05:14;101270.48;;;6.68;100.00
37304;BME280;23188;51.188;16.374;2023-02-11T15:09:41;101267.98;;;6.58;100.00
37304;BME280;23188;51.188;16.374;2023-02-11T15:13:47;101283.16;;;6.46;100.00
37304;BME280;23188;51.188;16.374;2023-02-11T15:17:57;101280.23;;;6.37;100.00
37304;BME280;23188;51.188;16.374;2023-02-11T15:22:03;101285.52;;;6.30;100.00
37304;BME280;23188;51.188;16.374;2023-02-11T15:26:13;101283.89;;;6.24;100.00
37304;BME280;23188;51.188;16.374;2023-02-11T15:34:23;101279.16;;;6.27;100.00
37304;BME280;23188;51.188;16.374;2023-02-11T15:38:26;101282.59;;;6.29;100.00
37304;BME280;23188;51.188;16.374;2023-02-11T15:42:30;101284.63;;;6.27;100.00
37304;BME280;23188;51.188;16.374;2023-02-11T15:46:45;101289.52;;;6.24;100.00
37304;BME280;23188;51.188;16.374;2023-02-11T15:50:56;101300.63;;;6.16;100.00
37304;BME280;23188;51.188;16.374;2023-02-11T15:55:11;101318.70;;;6.09;100.00
37304;BME280;23188;51.188;16.374;2023-02-11T15:59:54;101325.06;;;6.01;100.00
37304;BME280;23188;51.188;16.374;2023-02-11T16:03:58;101324.73;;;5.97;100.00
37304;BME280;23188;51.188;16.374;2023-02-11T16:08:26;101327.60;;;6.04;100.00
37304;BME280;23188;51.188;16.374;2023-02-11T16:12:30;101325.95;;;6.09;100.00
37304;BME280;23188;51.188;16.374;2023-02-11T16:16:33;101321.25;;;6.12;100.00
37304;BME280;23188;51.188;16.374;2023-02-11T16:20:36;101318.55;;;6.21;100.00
37304;BME280;23188;51.188;16.374;2023-02-11T16:24:59;101320.81;;;6.25;100.00
37304;BME280;23188;51.188;16.374;2023-02-11T16:29:30;101321.86;;;6.25;100.00
37304;BME280;23188;51.188;16.374;2023-02-11T16:33:39;101316.11;;;6.27;100.00
37304;BME280;23188;51.188;16.374;2023-02-11T16:37:43;101322.34;;;6.26;100.00
37304;BME280;23188;51.188;16.374;2023-02-11T16:41:46;101321.04;;;6.31;100.00
37304;BME280;23188;51.188;16.374;2023-02-11T16:58:57;101356.21;;;6.21;100.00
37304;BME280;23188;51.188;16.374;2023-02-11T17:03:34;101361.70;;;6.17;100.00
37304;BME280;23188;51.188;16.374;2023-02-11T17:16:36;101377.30;;;6.19;100.00
37304;BME280;23188;51.188;16.374;2023-02-11T17:20:41;101370.80;;;6.14;100.00
37304;BME280;23188;51.188;16.374;2023-02-11T17:24:43;101372.52;;;6.15;100.00
37304;BME280;23188;51.188;16.374;2023-02-11T17:28:45;101366.45;;;6.25;100.00
37304;BME280;23188;51.188;16.374;2023-02-11T17:32:49;101363.15;;;6.27;100.00
37304;BME280;23188;51.188;16.374;2023-02-11T17:36:51;101360.18;;;6.35;100.00
37304;BME280;23188;51.188;16.374;2023-02-11T17:40:58;101377.64;;;6.42;100.00
37304;BME280;23188;51.188;16.374;2023-02-11T17:45:00;101395.11;;;6.41;100.00
37304;BME280;23188;51.188;16.374;2023-02-11T17:49:02;101399.23;;;6.36;100.00
37304;BME280;23188;51.188;16.374;2023-02-11T17:53:05;101417.70;;;6.37;100.00
37304;BME280;23188;51.188;16.374;2023-02-11T17:57:09;101431.34;;;6.27;100.00
37304;BME280;23188;51.188;16.374;2023-02-11T18:01:11;101451.03;;;6.16;100.00
37304;BME280;23188;51.188;16.374;2023-02-11T18:05:14;101448.08;;;6.15;100.00
37304;BME280;23188;51.188;16.374;2023-02-11T18:09:15;101455.09;;;6.12;100.00
37304;BME280;23188;51.188;16.374;2023-02-11T18:13:18;101467.48;;;6.15;100.00
37304;BME280;23188;51.188;16.374;2023-02-11T18:17:21;101472.39;;;6.23;100.00
37304;BME280;23188;51.188;16.374;2023-02-11T18:21:23;101470.66;;;6.23;100.00
37304;BME280;23188;51.188;16.374;2023-02-11T18:25:25;101477.34;;;6.15;100.00
37304;BME280;23188;51.188;16.374;2023-02-11T18:29:28;101483.95;;;6.13;100.00
37304;BME280;23188;51.188;16.374;2023-02-11T18:33:30;101483.46;;;6.07;100.00
37304;BME280;23188;51.188;16.374;2023-02-11T18:37:32;101484.80;;;6.05;100.00
37304;BME280;23188;51.188;16.374;2023-02-11T18:41:34;101475.89;;;6.07;100.00
37304;BME280;23188;51.188;16.374;2023-02-11T18:45:36;101467.23;;;6.08;100.00
37304;BME280;23188;51.188;16.374;2023-02-11T18:49:38;101479.34;;;6.05;100.00
37304;BME280;23188;51.188;16.374;2023-02-11T18:53:41;101490.09;;;5.96;100.00
37304;BME280;23188;51.188;16.374;2023-02-11T18:57:43;101499.09;;;6.00;100.00
37304;BME280;23188;51.188;16.374;2023-02-11T19:01:46;101506.24;;;6.06;100.00
37304;BME280;23188;51.188;16.374;2023-02-11T19:05:50;101511.92;;;6.09;100.00
37304;BME280;23188;51.188;16.374;2023-02-11T19:09:54;101518.66;;;6.08;100.00
37304;BME280;23188;51.188;16.374;2023-02-11T19:13:57;101520.60;;;6.04;100.00
37304;BME280;23188;51.188;16.374;2023-02-11T19:17:58;101528.30;;;6.05;100.00
37304;BME280;23188;51.188;16.374;2023-02-11T19:22:02;101528.02;;;6.12;100.00
37304;BME280;23188;51.188;16.374;2023-02-11T19:26:09;101532.90;;;6.09;100.00
37304;BME280;23188;51.188;16.374;2023-02-11T19:30:11;101528.50;;;6.09;100.00
37304;BME280;23188;51.188;16.374;2023-02-11T19:34:14;101520.89;;;6.09;100.00
37304;BME280;23188;51.188;16.374;2023-02-11T19:38:20;101512.11;;;6.17;100.00
37304;BME280;23188;51.188;16.374;2023-02-11T19:42:35;101521.77;;;6.26;100.00
37304;BME280;23188;51.188;16.374;2023-02-11T19:47:02;101521.44;;;6.25;100.00
37304;BME280;23188;51.188;16.374;2023-02-11T19:51:24;101534.55;;;6.20;100.00
37304;BME280;23188;51.188;16.374;2023-02-11T19:55:26;101538.85;;;6.14;100.00
37304;BME280;23188;51.188;16.374;2023-02-11T19:59:45;101533.83;;;6.12;100.00
37304;BME280;23188;51.188;16.374;2023-02-11T20:04:01;101532.83;;;6.23;100.00
37304;BME280;23188;51.188;16.374;2023-02-11T20:08:12;101529.73;;;6.29;100.00
37304;BME280;23188;51.188;16.374;2023-02-11T20:12:23;101536.11;;;6.37;100.00
37304;BME280;23188;51.188;16.374;2023-02-11T20:16:27;101538.34;;;6.42;100.00
37304;BME280;23188;51.188;16.374;2023-02-11T20:20:54;101547.82;;;6.59;100.00
37304;BME280;23188;51.188;16.374;2023-02-11T20:24:56;101556.02;;;6.61;100.00
37304;BME280;23188;51.188;16.374;2023-02-11T20:29:06;101558.80;;;6.65;100.00
37304;BME280;23188;51.188;16.374;2023-02-11T20:33:11;101553.96;;;6.67;100.00
37304;BME280;23188;51.188;16.374;2023-02-11T20:37:21;101557.26;;;6.68;100.00
37304;BME280;23188;51.188;16.374;2023-02-11T20:41:26;101556.44;;;6.71;100.00
37304;BME280;23188;51.188;16.374;2023-02-11T20:45:29;101560.52;;;6.70;100.00
37304;BME280;23188;51.188;16.374;2023-02-11T20:49:44;101565.37;;;6.68;100.00
37304;BME280;23188;51.188;16.374;2023-02-11T20:53:48;101572.27;;;6.64;100.00
37304;BME280;23188;51.188;16.374;2023-02-11T20:57:53;101575.77;;;6.61;100.00
37304;BME280;23188;51.188;16.374;2023-02-11T21:02:03;101571.41;;;6.63;100.00
37304;BME280;23188;51.188;16.374;2023-02-11T21:06:13;101576.05;;;6.66;100.00
37304;BME280;23188;51.188;16.374;2023-02-11T21:10:25;101587.73;;;6.65;100.00
37304;BME280;23188;51.188;16.374;2023-02-11T21:14:35;101592.53;;;6.52;100.00
37304;BME280;23188;51.188;16.374;2023-02-11T21:18:43;101601.29;;;6.45;100.00
37304;BME280;23188;51.188;16.374;2023-02-11T21:22:56;101615.17;;;6.42;100.00
37304;BME280;23188;51.188;16.374;2023-02-11T21:26:58;101613.56;;;6.38;100.00
37304;BME280;23188;51.188;16.374;2023-02-11T21:31:02;101606.91;;;6.37;100.00
37304;BME280;23188;51.188;16.374;2023-02-11T21:35:04;101610.17;;;6.39;100.00
37304;BME280;23188;51.188;16.374;2023-02-11T21:39:07;101623.18;;;6.40;100.00
37304;BME280;23188;51.188;16.374;2023-02-11T21:43:09;101627.14;;;6.42;100.00
37304;BME280;23188;51.188;16.374;2023-02-11T21:47:11;101638.55;;;6.43;100.00
37304;BME280;23188;51.188;16.374;2023-02-11T21:51:16;101642.65;;;6.42;100.00
37304;BME280;23188;51.188;16.374;2023-02-11T21:55:19;101650.63;;;6.45;100.00
37304;BME280;23188;51.188;16.374;2023-02-11T21:59:21;101656.64;;;6.40;100.00
37304;BME280;23188;51.188;16.374;2023-02-11T22:03:23;101658.30;;;6.47;100.00
37304;BME280;23188;51.188;16.374;2023-02-11T22:07:25;101665.20;;;6.47;100.00
37304;BME280;23188;51.188;16.374;2023-02-11T22:11:28;101666.41;;;6.34;100.00
37304;BME280;23188;51.188;16.374;2023-02-11T22:15:30;101679.52;;;6.32;100.00
37304;BME280;23188;51.188;16.374;2023-02-11T22:19:33;101689.23;;;6.28;100.00
37304;BME280;23188;51.188;16.374;2023-02-11T22:23:36;101689.04;;;6.24;100.00
37304;BME280;23188;51.188;16.374;2023-02-11T22:27:38;101690.02;;;6.30;100.00
37304;BME280;23188;51.188;16.374;2023-02-11T22:31:41;101701.37;;;6.29;100.00
37304;BME280;23188;51.188;16.374;2023-02-11T22:35:43;101715.92;;;6.30;100.00
37304;BME280;23188;51.188;16.374;2023-02-11T22:39:45;101717.17;;;6.29;100.00
37304;BME280;23188;51.188;16.374;2023-02-11T22:43:47;101714.75;;;6.33;100.00
37304;BME280;23188;51.188;16.374;2023-02-11T22:47:49;101727.44;;;6.33;100.00
37304;BME280;23188;51.188;16.374;2023-02-11T22:51:51;101731.47;;;6.34;100.00
37304;BME280;23188;51.188;16.374;2023-02-11T22:55:53;101726.06;;;6.41;100.00
37304;BME280;23188;51.188;16.374;2023-02-11T22:59:56;101730.14;;;6.44;100.00
37304;BME280;23188;51.188;16.374;2023-02-11T23:03:59;101730.06;;;6.46;100.00
37304;BME280;23188;51.188;16.374;2023-02-11T23:08:01;101734.38;;;6.53;100.00
37304;BME280;23188;51.188;16.374;2023-02-11T23:12:03;101735.94;;;6.54;100.00
37304;BME280;23188;51.188;16.374;2023-02-11T23:16:08;101732.80;;;6.57;100.00
37304;BME280;23188;51.188;16.374;2023-02-11T23:20:12;101744.24;;;6.53;100.00
37304;BME280;23188;51.188;16.374;2023-02-11T23:24:14;101748.69;;;6.48;100.00
37304;BME280;23188;51.188;16.374;2023-02-11T23:28:16;101748.67;;;6.35;100.00
37304;BME280;23188;51.188;16.374;2023-02-11T23:32:19;101750.02;;;6.32;100.00
37304;BME280;23188;51.188;16.374;2023-02-11T23:36:22;101749.48;;;6.28;100.00
37304;BME280;23188;51.188;16.374;2023-02-11T23:40:24;101752.48;;;6.23;100.00
37304;BME280;23188;51.188;16.374;2023-02-11T23:44:26;101755.38;;;6.22;100.00
37304;BME280;23188;51.188;16.374;2023-02-11T23:48:29;101756.02;;;6.23;100.00
37304;BME280;23188;51.188;16.374;2023-02-11T23:52:32;101756.01;;;6.15;100.00
37304;BME280;23188;51.188;16.374;2023-02-11T23:56:34;101768.13;;;6.20;100.00
